Bethel, VT (05032)

2:57 AM EST on December 08, 2016 (GMT -0500)
Haven Street | | Change Station

Elev 955 ft 43.93 °N, 72.67 °W | Updated 53 seconds ago

Mostly Cloudy
Mostly Cloudy
32.0 °F
Feels Like 32 °F
N
0.0
Wind Variable Wind from NNE
Gusts 0.0 mph

Today
High -- | Low -- °F
--% Chance of Precip.
Yesterday
High -- | Low -- °F
Precip. -- in
Pressure 29.95 in
Visibility 3.0 miles
Clouds Few 100 ft
Windchill 32 °F
Dew Point 31 °F
Humidity 96%
Rainfall 0.00 in
Snow Depth Not available.
7:12 AM 4:12 PM
First Quarter, 61% visible
METAR KLEB 080753Z AUTO 00000KT 3SM BR FEW001 M01/M02 A2992 RMK AO2 SLP140 I1000 T10111017
Pressure 29.95 in
Visibility 3.0 miles
Clouds Few 100 ft
Windchill 32 °F
Dew Point 31 °F
Humidity 96%
Rainfall 0.00 in
Snow Depth Not available.
7:12 AM 4:12 PM
First Quarter, 61% visible
METAR KLEB 080753Z AUTO 00000KT 3SM BR FEW001 M01/M02 A2992 RMK AO2 SLP140 I1000 T10111017

10-Day Weather Forecast

Almanac

Astronomy

Dec. 08, 2016 Rise Set
Actual Time
Civil Twilight
Nautical Twilight
Astronomical Twilight
Moon
Length of Visible Light
Length of Day
Tomorrow will be .
, % of the Moon is Illuminated

Today's Extremes

State Highs State Lows

Community

WunderPhotos

Upload Photos

1,956,259 photos uploaded!

WunderBlog® & News

Nearby

Air Quality

  Air Quality AQ Index Pollutant
Not available.

Snow Depth

Station Depth Elevation

Earthquake Activity

City Distance Mag. Time & Date
Minimum magnitude displayed is 2.5.

Coastal Water Temperatures

Place Temperature

Stations

Nearby Weather Stations

Station Location Temp. Windchill Dew Point Humidity Wind Precip. Elev Updated Type
                   

Watches & Warnings

There are currently no watches in effect.